sensor_id;sensor_type;location;lat;lon;timestamp;P1;durP1;ratioP1;P2;durP2;ratioP2
59273;SDS011;45044;41.572;24.730;2022-11-18T00:01:04;57.33;;;38.00;;
59273;SDS011;45044;41.572;24.730;2022-11-18T00:03:36;55.90;;;40.00;;
59273;SDS011;45044;41.572;24.730;2022-11-18T00:06:03;50.63;;;35.72;;
59273;SDS011;45044;41.572;24.730;2022-11-18T00:08:31;49.28;;;34.10;;
59273;SDS011;45044;41.572;24.730;2022-11-18T00:11:03;49.83;;;33.33;;
59273;SDS011;45044;41.572;24.730;2022-11-18T00:13:31;54.47;;;36.45;;
59273;SDS011;45044;41.572;24.730;2022-11-18T00:16:16;50.97;;;34.42;;
59273;SDS011;45044;41.572;24.730;2022-11-18T00:18:43;49.50;;;36.25;;
59273;SDS011;45044;41.572;24.730;2022-11-18T00:21:10;49.30;;;35.08;;
59273;SDS011;45044;41.572;24.730;2022-11-18T00:23:37;52.08;;;32.92;;
59273;SDS011;45044;41.572;24.730;2022-11-18T00:28:32;44.55;;;32.70;;
59273;SDS011;45044;41.572;24.730;2022-11-18T00:31:00;49.13;;;34.15;;
59273;SDS011;45044;41.572;24.730;2022-11-18T00:33:31;53.80;;;33.03;;
59273;SDS011;45044;41.572;24.730;2022-11-18T00:35:58;53.80;;;34.88;;
59273;SDS011;45044;41.572;24.730;2022-11-18T00:38:25;54.97;;;36.25;;
59273;SDS011;45044;41.572;24.730;2022-11-18T00:40:59;55.35;;;36.92;;
59273;SDS011;45044;41.572;24.730;2022-11-18T00:43:30;53.47;;;35.28;;
59273;SDS011;45044;41.572;24.730;2022-11-18T00:45:57;51.10;;;35.30;;
59273;SDS011;45044;41.572;24.730;2022-11-18T00:48:24;47.60;;;33.45;;
59273;SDS011;45044;41.572;24.730;2022-11-18T00:50:52;48.40;;;36.75;;
59273;SDS011;45044;41.572;24.730;2022-11-18T00:53:21;41.63;;;28.35;;
59273;SDS011;45044;41.572;24.730;2022-11-18T00:55:48;33.58;;;22.52;;
59273;SDS011;45044;41.572;24.730;2022-11-18T00:58:16;35.97;;;26.42;;
59273;SDS011;45044;41.572;24.730;2022-11-18T01:00:43;40.17;;;28.73;;
59273;SDS011;45044;41.572;24.730;2022-11-18T01:03:14;44.35;;;32.40;;
59273;SDS011;45044;41.572;24.730;2022-11-18T01:05:41;48.20;;;35.80;;
59273;SDS011;45044;41.572;24.730;2022-11-18T01:08:09;46.50;;;33.67;;
59273;SDS011;45044;41.572;24.730;2022-11-18T01:10:37;43.53;;;30.95;;
59273;SDS011;45044;41.572;24.730;2022-11-18T01:13:05;43.38;;;29.88;;
59273;SDS011;45044;41.572;24.730;2022-11-18T01:15:54;42.38;;;30.23;;
59273;SDS011;45044;41.572;24.730;2022-11-18T01:18:28;41.10;;;26.00;;
59273;SDS011;45044;41.572;24.730;2022-11-18T01:21:03;47.92;;;34.60;;
59273;SDS011;45044;41.572;24.730;2022-11-18T01:23:31;44.28;;;32.45;;
59273;SDS011;45044;41.572;24.730;2022-11-18T01:26:02;42.33;;;30.92;;
59273;SDS011;45044;41.572;24.730;2022-11-18T01:28:30;45.40;;;31.08;;
59273;SDS011;45044;41.572;24.730;2022-11-18T01:31:10;44.33;;;32.85;;
59273;SDS011;45044;41.572;24.730;2022-11-18T01:33:42;45.23;;;31.53;;
59273;SDS011;45044;41.572;24.730;2022-11-18T01:36:17;44.33;;;30.63;;
59273;SDS011;45044;41.572;24.730;2022-11-18T01:38:46;43.95;;;32.75;;
59273;SDS011;45044;41.572;24.730;2022-11-18T01:41:13;42.25;;;28.42;;
59273;SDS011;45044;41.572;24.730;2022-11-18T01:44:00;45.03;;;30.02;;
59273;SDS011;45044;41.572;24.730;2022-11-18T01:46:29;42.70;;;29.55;;
59273;SDS011;45044;41.572;24.730;2022-11-18T01:48:59;42.75;;;30.75;;
59273;SDS011;45044;41.572;24.730;2022-11-18T01:51:50;43.95;;;29.23;;
59273;SDS011;45044;41.572;24.730;2022-11-18T01:54:36;41.05;;;29.88;;
59273;SDS011;45044;41.572;24.730;2022-11-18T01:57:07;36.65;;;28.02;;
59273;SDS011;45044;41.572;24.730;2022-11-18T01:59:39;41.92;;;28.10;;
59273;SDS011;45044;41.572;24.730;2022-11-18T02:02:10;35.33;;;26.05;;
59273;SDS011;45044;41.572;24.730;2022-11-18T02:04:40;39.85;;;28.88;;
59273;SDS011;45044;41.572;24.730;2022-11-18T02:07:09;42.70;;;29.45;;
59273;SDS011;45044;41.572;24.730;2022-11-18T02:09:37;35.72;;;26.40;;
59273;SDS011;45044;41.572;24.730;2022-11-18T02:12:04;37.30;;;26.20;;
59273;SDS011;45044;41.572;24.730;2022-11-18T02:14:34;32.42;;;23.48;;
59273;SDS011;45044;41.572;24.730;2022-11-18T02:17:16;38.50;;;25.50;;
59273;SDS011;45044;41.572;24.730;2022-11-18T02:24:55;53.75;;;35.78;;
59273;SDS011;45044;41.572;24.730;2022-11-18T02:30:09;45.42;;;34.60;;
59273;SDS011;45044;41.572;24.730;2022-11-18T02:32:47;32.38;;;22.50;;
59273;SDS011;45044;41.572;24.730;2022-11-18T02:35:17;35.88;;;25.75;;
59273;SDS011;45044;41.572;24.730;2022-11-18T02:38:03;38.00;;;26.23;;
59273;SDS011;45044;41.572;24.730;2022-11-18T02:40:44;35.33;;;23.02;;
59273;SDS011;45044;41.572;24.730;2022-11-18T02:43:17;40.28;;;27.15;;
59273;SDS011;45044;41.572;24.730;2022-11-18T02:45:48;35.42;;;24.80;;
59273;SDS011;45044;41.572;24.730;2022-11-18T02:48:19;34.38;;;21.77;;
59273;SDS011;45044;41.572;24.730;2022-11-18T02:50:48;25.17;;;18.58;;
59273;SDS011;45044;41.572;24.730;2022-11-18T02:53:18;27.85;;;17.35;;
59273;SDS011;45044;41.572;24.730;2022-11-18T02:55:46;36.60;;;24.20;;
59273;SDS011;45044;41.572;24.730;2022-11-18T02:58:14;44.58;;;26.05;;
59273;SDS011;45044;41.572;24.730;2022-11-18T03:00:52;40.72;;;27.42;;
59273;SDS011;45044;41.572;24.730;2022-11-18T03:03:32;48.63;;;28.95;;
59273;SDS011;45044;41.572;24.730;2022-11-18T03:14:39;49.22;;;29.15;;
59273;SDS011;45044;41.572;24.730;2022-11-18T03:17:28;44.17;;;29.58;;
59273;SDS011;45044;41.572;24.730;2022-11-18T03:25:51;36.92;;;20.10;;
59273;SDS011;45044;41.572;24.730;2022-11-18T03:28:29;34.95;;;21.38;;
59273;SDS011;45044;41.572;24.730;2022-11-18T03:33:42;38.53;;;24.08;;
59273;SDS011;45044;41.572;24.730;2022-11-18T03:36:14;40.45;;;25.35;;
59273;SDS011;45044;41.572;24.730;2022-11-18T03:38:46;49.70;;;26.10;;
59273;SDS011;45044;41.572;24.730;2022-11-18T03:41:16;46.75;;;28.67;;
59273;SDS011;45044;41.572;24.730;2022-11-18T03:43:50;49.15;;;28.02;;
59273;SDS011;45044;41.572;24.730;2022-11-18T03:46:42;42.90;;;25.83;;
59273;SDS011;45044;41.572;24.730;2022-11-18T03:49:13;50.47;;;31.75;;
59273;SDS011;45044;41.572;24.730;2022-11-18T03:51:47;54.90;;;33.97;;
59273;SDS011;45044;41.572;24.730;2022-11-18T03:54:23;52.25;;;30.55;;
59273;SDS011;45044;41.572;24.730;2022-11-18T03:57:01;48.20;;;31.77;;
59273;SDS011;45044;41.572;24.730;2022-11-18T03:59:36;48.50;;;30.58;;
59273;SDS011;45044;41.572;24.730;2022-11-18T04:02:13;47.95;;;29.08;;
59273;SDS011;45044;41.572;24.730;2022-11-18T04:04:43;45.10;;;29.27;;
59273;SDS011;45044;41.572;24.730;2022-11-18T04:07:21;29.98;;;19.10;;
59273;SDS011;45044;41.572;24.730;2022-11-18T04:12:44;40.23;;;26.43;;
59273;SDS011;45044;41.572;24.730;2022-11-18T04:15:15;53.03;;;34.63;;
59273;SDS011;45044;41.572;24.730;2022-11-18T04:17:41;44.47;;;30.10;;
59273;SDS011;45044;41.572;24.730;2022-11-18T04:20:16;65.90;;;42.43;;
59273;SDS011;45044;41.572;24.730;2022-11-18T04:22:46;43.70;;;28.53;;
59273;SDS011;45044;41.572;24.730;2022-11-18T04:25:13;51.03;;;35.10;;
59273;SDS011;45044;41.572;24.730;2022-11-18T04:27:40;44.87;;;30.60;;
59273;SDS011;45044;41.572;24.730;2022-11-18T04:30:07;53.03;;;34.10;;
59273;SDS011;45044;41.572;24.730;2022-11-18T04:32:35;44.83;;;33.47;;
59273;SDS011;45044;41.572;24.730;2022-11-18T04:35:01;49.20;;;34.93;;
59273;SDS011;45044;41.572;24.730;2022-11-18T04:37:28;48.60;;;35.63;;
59273;SDS011;45044;41.572;24.730;2022-11-18T04:39:55;41.13;;;30.00;;
59273;SDS011;45044;41.572;24.730;2022-11-18T04:42:22;42.33;;;30.80;;
59273;SDS011;45044;41.572;24.730;2022-11-18T04:44:48;42.40;;;32.22;;
59273;SDS011;45044;41.572;24.730;2022-11-18T04:47:15;43.33;;;32.43;;
59273;SDS011;45044;41.572;24.730;2022-11-18T04:49:42;45.33;;;36.37;;
59273;SDS011;45044;41.572;24.730;2022-11-18T04:52:09;52.07;;;36.50;;
59273;SDS011;45044;41.572;24.730;2022-11-18T04:54:36;36.87;;;30.73;;
59273;SDS011;45044;41.572;24.730;2022-11-18T04:57:03;36.47;;;25.03;;
59273;SDS011;45044;41.572;24.730;2022-11-18T04:59:30;36.73;;;29.47;;
59273;SDS011;45044;41.572;24.730;2022-11-18T05:01:57;23.27;;;16.88;;
59273;SDS011;45044;41.572;24.730;2022-11-18T05:04:27;26.15;;;21.23;;
59273;SDS011;45044;41.572;24.730;2022-11-18T05:06:56;25.77;;;18.17;;
59273;SDS011;45044;41.572;24.730;2022-11-18T05:09:24;31.25;;;21.42;;
59273;SDS011;45044;41.572;24.730;2022-11-18T05:11:57;37.97;;;30.15;;
59273;SDS011;45044;41.572;24.730;2022-11-18T05:14:42;50.65;;;41.45;;
59273;SDS011;45044;41.572;24.730;2022-11-18T05:19:44;51.77;;;39.17;;
59273;SDS011;45044;41.572;24.730;2022-11-18T05:22:10;54.33;;;41.23;;
59273;SDS011;45044;41.572;24.730;2022-11-18T05:24:37;50.10;;;37.28;;
59273;SDS011;45044;41.572;24.730;2022-11-18T05:27:04;54.80;;;41.15;;
59273;SDS011;45044;41.572;24.730;2022-11-18T05:29:31;59.38;;;43.83;;
59273;SDS011;45044;41.572;24.730;2022-11-18T05:31:58;50.90;;;40.58;;
59273;SDS011;45044;41.572;24.730;2022-11-18T05:34:25;59.58;;;47.00;;
59273;SDS011;45044;41.572;24.730;2022-11-18T05:36:52;54.42;;;43.00;;
59273;SDS011;45044;41.572;24.730;2022-11-18T05:39:19;57.05;;;44.30;;
59273;SDS011;45044;41.572;24.730;2022-11-18T05:41:46;66.00;;;48.13;;
59273;SDS011;45044;41.572;24.730;2022-11-18T05:44:31;61.38;;;49.28;;
59273;SDS011;45044;41.572;24.730;2022-11-18T05:46:58;67.30;;;51.37;;
59273;SDS011;45044;41.572;24.730;2022-11-18T05:49:25;68.70;;;52.25;;
59273;SDS011;45044;41.572;24.730;2022-11-18T05:51:52;66.57;;;48.97;;
59273;SDS011;45044;41.572;24.730;2022-11-18T05:54:18;68.70;;;50.90;;
59273;SDS011;45044;41.572;24.730;2022-11-18T05:56:47;75.07;;;56.20;;
59273;SDS011;45044;41.572;24.730;2022-11-18T05:59:14;69.30;;;50.80;;
59273;SDS011;45044;41.572;24.730;2022-11-18T06:04:13;63.90;;;47.93;;
59273;SDS011;45044;41.572;24.730;2022-11-18T06:06:43;58.13;;;46.10;;
59273;SDS011;45044;41.572;24.730;2022-11-18T06:09:13;56.03;;;43.88;;
59273;SDS011;45044;41.572;24.730;2022-11-18T06:11:45;46.80;;;34.95;;
59273;SDS011;45044;41.572;24.730;2022-11-18T06:14:17;37.85;;;30.60;;
59273;SDS011;45044;41.572;24.730;2022-11-18T06:16:49;42.67;;;30.10;;
59273;SDS011;45044;41.572;24.730;2022-11-18T06:19:21;55.92;;;42.22;;
59273;SDS011;45044;41.572;24.730;2022-11-18T06:21:48;60.38;;;44.65;;
59273;SDS011;45044;41.572;24.730;2022-11-18T06:24:16;55.78;;;46.03;;
59273;SDS011;45044;41.572;24.730;2022-11-18T06:26:43;46.65;;;39.45;;
59273;SDS011;45044;41.572;24.730;2022-11-18T06:29:12;42.90;;;36.95;;
59273;SDS011;45044;41.572;24.730;2022-11-18T06:31:41;39.67;;;32.65;;
59273;SDS011;45044;41.572;24.730;2022-11-18T06:34:07;46.83;;;40.38;;
59273;SDS011;45044;41.572;24.730;2022-11-18T06:36:34;51.50;;;46.08;;
59273;SDS011;45044;41.572;24.730;2022-11-18T06:39:02;47.85;;;39.75;;
59273;SDS011;45044;41.572;24.730;2022-11-18T06:41:32;39.00;;;34.80;;
59273;SDS011;45044;41.572;24.730;2022-11-18T06:43:59;35.30;;;31.60;;
59273;SDS011;45044;41.572;24.730;2022-11-18T06:46:26;38.05;;;33.90;;
59273;SDS011;45044;41.572;24.730;2022-11-18T06:49:11;39.90;;;35.50;;
59273;SDS011;45044;41.572;24.730;2022-11-18T06:51:37;31.90;;;28.33;;
59273;SDS011;45044;41.572;24.730;2022-11-18T06:54:05;30.75;;;25.33;;
59273;SDS011;45044;41.572;24.730;2022-11-18T06:56:36;27.30;;;23.92;;
59273;SDS011;45044;41.572;24.730;2022-11-18T06:59:03;27.45;;;23.65;;
59273;SDS011;45044;41.572;24.730;2022-11-18T07:01:30;28.50;;;25.42;;
59273;SDS011;45044;41.572;24.730;2022-11-18T07:04:00;28.95;;;25.58;;
59273;SDS011;45044;41.572;24.730;2022-11-18T07:06:28;49.80;;;38.05;;
59273;SDS011;45044;41.572;24.730;2022-11-18T07:08:56;62.03;;;44.80;;
59273;SDS011;45044;41.572;24.730;2022-11-18T07:11:25;52.47;;;44.60;;
59273;SDS011;45044;41.572;24.730;2022-11-18T07:13:53;63.00;;;48.70;;
59273;SDS011;45044;41.572;24.730;2022-11-18T07:16:21;48.03;;;39.85;;
59273;SDS011;45044;41.572;24.730;2022-11-18T07:18:50;40.33;;;33.90;;
59273;SDS011;45044;41.572;24.730;2022-11-18T07:21:19;40.53;;;36.10;;
59273;SDS011;45044;41.572;24.730;2022-11-18T07:23:48;35.63;;;32.10;;
59273;SDS011;45044;41.572;24.730;2022-11-18T07:26:15;34.72;;;29.38;;
59273;SDS011;45044;41.572;24.730;2022-11-18T07:28:42;35.85;;;30.40;;
59273;SDS011;45044;41.572;24.730;2022-11-18T07:31:10;33.90;;;28.13;;
59273;SDS011;45044;41.572;24.730;2022-11-18T07:33:43;23.52;;;19.55;;
59273;SDS011;45044;41.572;24.730;2022-11-18T07:36:17;28.00;;;23.88;;
59273;SDS011;45044;41.572;24.730;2022-11-18T07:38:51;28.33;;;22.63;;
59273;SDS011;45044;41.572;24.730;2022-11-18T07:41:20;21.98;;;18.85;;
59273;SDS011;45044;41.572;24.730;2022-11-18T07:43:48;21.90;;;18.77;;
59273;SDS011;45044;41.572;24.730;2022-11-18T07:48:46;18.38;;;15.65;;
59273;SDS011;45044;41.572;24.730;2022-11-18T07:51:15;19.48;;;17.42;;
59273;SDS011;45044;41.572;24.730;2022-11-18T07:53:44;20.35;;;18.17;;
59273;SDS011;45044;41.572;24.730;2022-11-18T07:56:11;22.42;;;18.00;;
59273;SDS011;45044;41.572;24.730;2022-11-18T07:58:39;25.35;;;19.73;;
59273;SDS011;45044;41.572;24.730;2022-11-18T08:01:10;22.50;;;19.23;;
59273;SDS011;45044;41.572;24.730;2022-11-18T08:03:40;21.15;;;18.77;;
59273;SDS011;45044;41.572;24.730;2022-11-18T08:06:08;19.85;;;16.50;;
59273;SDS011;45044;41.572;24.730;2022-11-18T08:08:36;21.00;;;17.58;;
59273;SDS011;45044;41.572;24.730;2022-11-18T08:11:05;20.65;;;17.50;;
59273;SDS011;45044;41.572;24.730;2022-11-18T08:13:35;14.77;;;12.55;;
59273;SDS011;45044;41.572;24.730;2022-11-18T08:16:02;20.92;;;17.48;;
59273;SDS011;45044;41.572;24.730;2022-11-18T08:18:30;19.17;;;15.82;;
59273;SDS011;45044;41.572;24.730;2022-11-18T08:21:01;7.03;;;4.72;;
59273;SDS011;45044;41.572;24.730;2022-11-18T08:23:29;20.63;;;14.85;;
59273;SDS011;45044;41.572;24.730;2022-11-18T08:26:01;15.90;;;13.57;;
59273;SDS011;45044;41.572;24.730;2022-11-18T08:28:33;8.30;;;5.78;;
59273;SDS011;45044;41.572;24.730;2022-11-18T08:31:07;4.70;;;2.95;;
59273;SDS011;45044;41.572;24.730;2022-11-18T08:33:38;4.38;;;2.00;;
59273;SDS011;45044;41.572;24.730;2022-11-18T08:36:09;5.82;;;3.33;;
59273;SDS011;45044;41.572;24.730;2022-11-18T08:41:06;4.32;;;1.90;;
59273;SDS011;45044;41.572;24.730;2022-11-18T08:43:37;4.07;;;2.25;;
59273;SDS011;45044;41.572;24.730;2022-11-18T08:46:04;5.22;;;2.40;;
59273;SDS011;45044;41.572;24.730;2022-11-18T08:48:31;4.63;;;2.35;;
59273;SDS011;45044;41.572;24.730;2022-11-18T08:50:58;3.05;;;1.83;;
59273;SDS011;45044;41.572;24.730;2022-11-18T08:53:25;1.80;;;1.50;;
59273;SDS011;45044;41.572;24.730;2022-11-18T08:55:55;2.58;;;1.50;;
59273;SDS011;45044;41.572;24.730;2022-11-18T08:58:23;3.35;;;1.80;;
59273;SDS011;45044;41.572;24.730;2022-11-18T09:00:51;3.83;;;1.55;;
59273;SDS011;45044;41.572;24.730;2022-11-18T09:03:18;2.35;;;1.70;;
59273;SDS011;45044;41.572;24.730;2022-11-18T09:05:45;3.67;;;1.80;;
59273;SDS011;45044;41.572;24.730;2022-11-18T09:08:12;2.75;;;1.52;;
59273;SDS011;45044;41.572;24.730;2022-11-18T09:10:39;4.32;;;2.00;;
59273;SDS011;45044;41.572;24.730;2022-11-18T09:13:07;4.32;;;2.00;;
59273;SDS011;45044;41.572;24.730;2022-11-18T09:15:56;2.97;;;1.60;;
59273;SDS011;45044;41.572;24.730;2022-11-18T09:18:24;4.05;;;2.50;;
59273;SDS011;45044;41.572;24.730;2022-11-18T09:23:21;1.55;;;1.20;;
59273;SDS011;45044;41.572;24.730;2022-11-18T09:25:48;4.25;;;1.65;;
59273;SDS011;45044;41.572;24.730;2022-11-18T09:28:22;5.38;;;2.38;;
59273;SDS011;45044;41.572;24.730;2022-11-18T09:30:49;5.15;;;2.10;;
59273;SDS011;45044;41.572;24.730;2022-11-18T09:33:16;3.85;;;1.77;;
59273;SDS011;45044;41.572;24.730;2022-11-18T09:35:46;3.20;;;2.05;;
59273;SDS011;45044;41.572;24.730;2022-11-18T09:38:13;3.08;;;1.77;;
59273;SDS011;45044;41.572;24.730;2022-11-18T09:40:47;3.90;;;2.13;;
59273;SDS011;45044;41.572;24.730;2022-11-18T09:43:46;4.60;;;2.60;;
59273;SDS011;45044;41.572;24.730;2022-11-18T09:46:20;5.57;;;1.83;;
59273;SDS011;45044;41.572;24.730;2022-11-18T09:48:48;3.67;;;1.80;;
59273;SDS011;45044;41.572;24.730;2022-11-18T09:51:37;3.17;;;2.03;;
59273;SDS011;45044;41.572;24.730;2022-11-18T09:54:10;4.25;;;1.95;;
59273;SDS011;45044;41.572;24.730;2022-11-18T09:56:42;5.47;;;2.42;;
59273;SDS011;45044;41.572;24.730;2022-11-18T09:59:10;3.65;;;1.60;;
59273;SDS011;45044;41.572;24.730;2022-11-18T10:01:39;4.22;;;2.03;;
59273;SDS011;45044;41.572;24.730;2022-11-18T10:04:11;5.07;;;2.47;;
59273;SDS011;45044;41.572;24.730;2022-11-18T10:06:40;5.68;;;2.42;;
59273;SDS011;45044;41.572;24.730;2022-11-18T10:09:12;7.22;;;3.20;;
59273;SDS011;45044;41.572;24.730;2022-11-18T10:11:44;5.22;;;2.78;;
59273;SDS011;45044;41.572;24.730;2022-11-18T10:25:38;4.25;;;2.50;;
59273;SDS011;45044;41.572;24.730;2022-11-18T10:28:13;3.88;;;2.47;;
59273;SDS011;45044;41.572;24.730;2022-11-18T10:33:24;9.10;;;5.38;;
59273;SDS011;45044;41.572;24.730;2022-11-18T10:39:10;5.75;;;2.72;;
59273;SDS011;45044;41.572;24.730;2022-11-18T10:41:39;4.13;;;1.80;;
59273;SDS011;45044;41.572;24.730;2022-11-18T10:47:14;3.70;;;2.00;;
59273;SDS011;45044;41.572;24.730;2022-11-18T10:49:47;4.35;;;2.20;;
59273;SDS011;45044;41.572;24.730;2022-11-18T10:52:14;5.05;;;2.55;;
59273;SDS011;45044;41.572;24.730;2022-11-18T10:54:41;3.75;;;1.85;;
59273;SDS011;45044;41.572;24.730;2022-11-18T10:57:21;3.67;;;2.17;;
59273;SDS011;45044;41.572;24.730;2022-11-18T10:59:55;4.78;;;2.30;;
59273;SDS011;45044;41.572;24.730;2022-11-18T11:02:32;3.55;;;1.90;;
59273;SDS011;45044;41.572;24.730;2022-11-18T11:05:15;5.25;;;1.90;;
59273;SDS011;45044;41.572;24.730;2022-11-18T11:07:59;3.72;;;1.58;;
59273;SDS011;45044;41.572;24.730;2022-11-18T11:10:54;6.57;;;2.20;;
59273;SDS011;45044;41.572;24.730;2022-11-18T11:13:24;6.45;;;2.72;;
59273;SDS011;45044;41.572;24.730;2022-11-18T11:15:54;7.20;;;3.45;;
59273;SDS011;45044;41.572;24.730;2022-11-18T11:18:24;5.93;;;3.80;;
59273;SDS011;45044;41.572;24.730;2022-11-18T11:21:19;3.83;;;2.10;;
59273;SDS011;45044;41.572;24.730;2022-11-18T11:23:48;5.75;;;2.90;;
59273;SDS011;45044;41.572;24.730;2022-11-18T11:32:19;5.20;;;2.22;;
59273;SDS011;45044;41.572;24.730;2022-11-18T11:37:46;4.45;;;2.70;;
59273;SDS011;45044;41.572;24.730;2022-11-18T11:51:08;2.75;;;1.88;;
59273;SDS011;45044;41.572;24.730;2022-11-18T11:56:16;5.45;;;2.20;;
59273;SDS011;45044;41.572;24.730;2022-11-18T12:02:33;5.78;;;2.20;;
59273;SDS011;45044;41.572;24.730;2022-11-18T12:07:42;6.22;;;2.40;;
59273;SDS011;45044;41.572;24.730;2022-11-18T12:18:32;7.03;;;3.45;;
59273;SDS011;45044;41.572;24.730;2022-11-18T12:26:46;6.20;;;2.80;;
59273;SDS011;45044;41.572;24.730;2022-11-18T12:31:47;5.20;;;2.80;;
59273;SDS011;45044;41.572;24.730;2022-11-18T12:36:52;5.00;;;2.20;;
59273;SDS011;45044;41.572;24.730;2022-11-18T12:41:59;4.43;;;2.83;;
59273;SDS011;45044;41.572;24.730;2022-11-18T12:44:46;5.57;;;2.50;;
59273;SDS011;45044;41.572;24.730;2022-11-18T12:47:15;5.55;;;2.50;;
59273;SDS011;45044;41.572;24.730;2022-11-18T12:50:11;4.93;;;2.40;;
59273;SDS011;45044;41.572;24.730;2022-11-18T12:55:20;4.70;;;2.70;;
59273;SDS011;45044;41.572;24.730;2022-11-18T12:57:51;6.68;;;3.60;;
59273;SDS011;45044;41.572;24.730;2022-11-18T13:02:51;6.93;;;3.67;;
59273;SDS011;45044;41.572;24.730;2022-11-18T13:05:30;6.82;;;4.18;;
59273;SDS011;45044;41.572;24.730;2022-11-18T13:13:25;10.07;;;5.32;;
59273;SDS011;45044;41.572;24.730;2022-11-18T13:15:56;7.60;;;4.72;;
59273;SDS011;45044;41.572;24.730;2022-11-18T13:18:52;7.95;;;4.15;;
59273;SDS011;45044;41.572;24.730;2022-11-18T13:21:26;9.43;;;4.70;;
59273;SDS011;45044;41.572;24.730;2022-11-18T13:24:13;11.43;;;5.43;;
59273;SDS011;45044;41.572;24.730;2022-11-18T13:26:42;12.88;;;7.13;;
59273;SDS011;45044;41.572;24.730;2022-11-18T13:34:26;5.15;;;2.25;;
59273;SDS011;45044;41.572;24.730;2022-11-18T13:36:55;6.20;;;3.00;;
59273;SDS011;45044;41.572;24.730;2022-11-18T13:39:28;5.75;;;2.42;;
59273;SDS011;45044;41.572;24.730;2022-11-18T13:44:28;11.20;;;4.75;;
59273;SDS011;45044;41.572;24.730;2022-11-18T13:50:16;10.68;;;6.10;;
59273;SDS011;45044;41.572;24.730;2022-11-18T13:54:54;16.10;;;11.23;;
59273;SDS011;45044;41.572;24.730;2022-11-18T13:57:23;16.80;;;10.18;;
59273;SDS011;45044;41.572;24.730;2022-11-18T13:59:51;10.10;;;5.72;;
59273;SDS011;45044;41.572;24.730;2022-11-18T14:02:20;11.15;;;7.90;;
59273;SDS011;45044;41.572;24.730;2022-11-18T14:04:57;12.13;;;7.60;;
59273;SDS011;45044;41.572;24.730;2022-11-18T14:10:04;23.40;;;12.50;;
59273;SDS011;45044;41.572;24.730;2022-11-18T14:12:33;5.88;;;3.22;;
59273;SDS011;45044;41.572;24.730;2022-11-18T14:15:14;8.63;;;4.50;;
59273;SDS011;45044;41.572;24.730;2022-11-18T14:17:53;5.38;;;2.70;;
59273;SDS011;45044;41.572;24.730;2022-11-18T14:20:22;10.45;;;6.25;;
59273;SDS011;45044;41.572;24.730;2022-11-18T14:22:55;8.98;;;6.00;;
59273;SDS011;45044;41.572;24.730;2022-11-18T14:25:27;10.20;;;7.07;;
59273;SDS011;45044;41.572;24.730;2022-11-18T14:28:08;6.82;;;3.95;;
59273;SDS011;45044;41.572;24.730;2022-11-18T14:31:01;14.00;;;8.10;;
59273;SDS011;45044;41.572;24.730;2022-11-18T14:36:52;8.10;;;4.70;;
59273;SDS011;45044;41.572;24.730;2022-11-18T14:39:22;12.45;;;7.53;;
59273;SDS011;45044;41.572;24.730;2022-11-18T14:41:53;16.35;;;10.35;;
59273;SDS011;45044;41.572;24.730;2022-11-18T14:44:21;5.95;;;3.35;;
59273;SDS011;45044;41.572;24.730;2022-11-18T14:49:19;10.63;;;6.30;;
59273;SDS011;45044;41.572;24.730;2022-11-18T14:51:48;5.72;;;3.88;;
59273;SDS011;45044;41.572;24.730;2022-11-18T14:54:18;6.88;;;4.03;;
59273;SDS011;45044;41.572;24.730;2022-11-18T14:57:11;7.55;;;4.72;;
59273;SDS011;45044;41.572;24.730;2022-11-18T14:59:41;10.88;;;4.63;;
59273;SDS011;45044;41.572;24.730;2022-11-18T15:02:15;8.20;;;4.72;;
59273;SDS011;45044;41.572;24.730;2022-11-18T15:04:43;6.45;;;3.70;;
59273;SDS011;45044;41.572;24.730;2022-11-18T15:07:11;8.02;;;4.40;;
59273;SDS011;45044;41.572;24.730;2022-11-18T15:09:46;10.15;;;6.63;;
59273;SDS011;45044;41.572;24.730;2022-11-18T15:12:13;13.05;;;8.07;;
59273;SDS011;45044;41.572;24.730;2022-11-18T15:14:40;8.48;;;5.20;;
59273;SDS011;45044;41.572;24.730;2022-11-18T15:17:09;7.85;;;4.65;;
59273;SDS011;45044;41.572;24.730;2022-11-18T15:19:37;21.83;;;15.52;;
59273;SDS011;45044;41.572;24.730;2022-11-18T15:22:06;5.63;;;3.17;;
59273;SDS011;45044;41.572;24.730;2022-11-18T15:24:33;9.48;;;7.55;;
59273;SDS011;45044;41.572;24.730;2022-11-18T15:27:00;9.25;;;6.68;;
59273;SDS011;45044;41.572;24.730;2022-11-18T15:29:30;9.25;;;4.95;;
59273;SDS011;45044;41.572;24.730;2022-11-18T15:31:57;11.82;;;8.45;;
59273;SDS011;45044;41.572;24.730;2022-11-18T15:34:25;13.93;;;8.57;;
59273;SDS011;45044;41.572;24.730;2022-11-18T15:36:52;10.60;;;6.35;;
59273;SDS011;45044;41.572;24.730;2022-11-18T15:39:18;11.23;;;7.50;;
59273;SDS011;45044;41.572;24.730;2022-11-18T15:41:45;31.40;;;25.50;;
59273;SDS011;45044;41.572;24.730;2022-11-18T15:44:12;8.75;;;4.90;;
59273;SDS011;45044;41.572;24.730;2022-11-18T15:46:39;9.25;;;4.85;;
59273;SDS011;45044;41.572;24.730;2022-11-18T15:49:06;11.35;;;7.20;;
59273;SDS011;45044;41.572;24.730;2022-11-18T15:51:35;8.55;;;5.00;;
59273;SDS011;45044;41.572;24.730;2022-11-18T15:54:02;7.10;;;4.13;;
59273;SDS011;45044;41.572;24.730;2022-11-18T15:56:29;12.18;;;7.13;;
59273;SDS011;45044;41.572;24.730;2022-11-18T15:58:57;7.60;;;4.68;;
59273;SDS011;45044;41.572;24.730;2022-11-18T16:01:29;8.75;;;5.45;;
59273;SDS011;45044;41.572;24.730;2022-11-18T16:03:58;22.00;;;16.35;;
59273;SDS011;45044;41.572;24.730;2022-11-18T16:06:25;35.03;;;26.13;;
59273;SDS011;45044;41.572;24.730;2022-11-18T16:08:52;11.35;;;7.20;;
59273;SDS011;45044;41.572;24.730;2022-11-18T16:11:25;7.80;;;4.68;;
59273;SDS011;45044;41.572;24.730;2022-11-18T16:14:11;10.45;;;6.65;;
59273;SDS011;45044;41.572;24.730;2022-11-18T16:16:40;8.30;;;4.82;;
59273;SDS011;45044;41.572;24.730;2022-11-18T16:19:13;6.68;;;4.03;;
59273;SDS011;45044;41.572;24.730;2022-11-18T16:21:43;8.40;;;5.13;;
59273;SDS011;45044;41.572;24.730;2022-11-18T16:24:24;14.13;;;8.20;;
59273;SDS011;45044;41.572;24.730;2022-11-18T16:26:52;9.60;;;6.57;;
59273;SDS011;45044;41.572;24.730;2022-11-18T16:29:19;6.60;;;3.22;;
59273;SDS011;45044;41.572;24.730;2022-11-18T16:31:47;9.02;;;4.90;;
59273;SDS011;45044;41.572;24.730;2022-11-18T16:34:20;11.40;;;7.00;;
59273;SDS011;45044;41.572;24.730;2022-11-18T16:36:52;16.60;;;9.57;;
59273;SDS011;45044;41.572;24.730;2022-11-18T16:39:22;6.57;;;3.53;;
59273;SDS011;45044;41.572;24.730;2022-11-18T16:41:51;10.52;;;6.20;;
59273;SDS011;45044;41.572;24.730;2022-11-18T16:44:19;10.60;;;4.72;;
59273;SDS011;45044;41.572;24.730;2022-11-18T16:46:47;8.93;;;6.20;;
59273;SDS011;45044;41.572;24.730;2022-11-18T16:49:17;8.15;;;5.63;;
59273;SDS011;45044;41.572;24.730;2022-11-18T16:51:47;6.38;;;4.15;;
59273;SDS011;45044;41.572;24.730;2022-11-18T16:54:19;8.00;;;5.35;;
59273;SDS011;45044;41.572;24.730;2022-11-18T16:56:51;5.53;;;3.65;;
59273;SDS011;45044;41.572;24.730;2022-11-18T16:59:23;12.23;;;6.47;;
59273;SDS011;45044;41.572;24.730;2022-11-18T17:01:51;17.90;;;11.13;;
59273;SDS011;45044;41.572;24.730;2022-11-18T17:04:20;13.57;;;12.07;;
59273;SDS011;45044;41.572;24.730;2022-11-18T17:06:49;7.57;;;4.43;;